createdAt,value
2023-04-19T00:01:08.902Z,8.50
2023-04-19T00:03:36.339Z,8.48
2023-04-19T00:06:03.636Z,8.42
2023-04-19T00:08:31.839Z,8.38
2023-04-19T00:10:58.845Z,8.39
2023-04-19T00:13:26.103Z,8.38
2023-04-19T00:15:53.062Z,8.36
2023-04-19T00:18:20.063Z,8.33
2023-04-19T00:20:48.833Z,8.29
2023-04-19T00:23:15.910Z,8.29
2023-04-19T00:25:42.916Z,8.25
2023-04-19T00:28:09.861Z,8.21
2023-04-19T00:31:01.960Z,8.24
2023-04-19T00:33:31.345Z,8.19
2023-04-19T00:35:58.315Z,8.20
2023-04-19T00:38:25.775Z,8.18
2023-04-19T00:40:52.746Z,8.20
2023-04-19T00:43:20.034Z,8.21
2023-04-19T00:45:48.416Z,8.18
2023-04-19T00:48:15.725Z,8.22
2023-04-19T00:50:44.784Z,8.23
2023-04-19T00:53:11.997Z,8.21
2023-04-19T00:55:39.790Z,8.20
2023-04-19T00:58:08.854Z,8.20
2023-04-19T01:00:37.301Z,8.19
2023-04-19T01:03:04.744Z,8.17
2023-04-19T01:05:31.882Z,8.15
2023-04-19T01:07:58.912Z,8.13
2023-04-19T01:10:30.084Z,8.12
2023-04-19T01:12:57.083Z,8.04
2023-04-19T01:15:24.111Z,8.02
2023-04-19T01:17:51.380Z,7.96
2023-04-19T01:20:18.410Z,7.90
2023-04-19T01:22:46.750Z,7.86
2023-04-19T01:25:13.744Z,7.84
2023-04-19T01:27:44.479Z,7.80
2023-04-19T01:30:12.024Z,7.81
2023-04-19T01:32:39.142Z,7.85
2023-04-19T01:35:06.643Z,7.85
2023-04-19T01:37:37.415Z,7.87
2023-04-19T01:40:08.440Z,7.86
2023-04-19T01:42:37.043Z,7.84
2023-04-19T01:45:04.502Z,7.83
2023-04-19T01:47:32.677Z,7.81
2023-04-19T01:49:59.705Z,7.75
2023-04-19T01:52:26.934Z,7.69
2023-04-19T01:54:53.898Z,7.63
2023-04-19T01:57:20.936Z,7.58
2023-04-19T01:59:48.043Z,7.53
2023-04-19T02:02:15.240Z,7.48
2023-04-19T02:04:42.350Z,7.41
2023-04-19T02:07:09.377Z,7.39
2023-04-19T02:09:37.346Z,7.39
2023-04-19T02:12:05.663Z,7.38
2023-04-19T02:14:32.926Z,7.34
2023-04-19T02:17:02.950Z,7.32
2023-04-19T02:19:29.957Z,7.28
2023-04-19T02:21:58.047Z,7.26
2023-04-19T02:24:25.349Z,7.23
2023-04-19T02:26:53.556Z,7.20
2023-04-19T02:29:21.162Z,7.14
2023-04-19T02:31:48.443Z,7.11
2023-04-19T02:34:16.024Z,7.10
2023-04-19T02:36:43.421Z,7.07
2023-04-19T02:39:10.373Z,7.07
2023-04-19T02:41:39.196Z,7.04
2023-04-19T02:44:06.298Z,7.05
2023-04-19T02:46:34.899Z,7.01
2023-04-19T02:49:04.804Z,7.03
2023-04-19T02:51:33.187Z,7.04
2023-04-19T02:54:00.097Z,7.05
2023-04-19T02:56:27.219Z,7.07
2023-04-19T02:58:55.185Z,7.05
2023-04-19T03:01:24.323Z,7.04
2023-04-19T03:03:54.182Z,7.04
2023-04-19T03:06:21.561Z,7.07
2023-04-19T03:08:48.852Z,7.14
2023-04-19T03:11:18.440Z,7.15
2023-04-19T03:13:50.433Z,7.22
2023-04-19T03:16:19.257Z,7.24
2023-04-19T03:18:50.195Z,7.26
2023-04-19T03:21:21.564Z,7.28
2023-04-19T03:23:54.473Z,7.33
2023-04-19T03:26:22.327Z,7.42
2023-04-19T03:28:53.017Z,7.42
2023-04-19T03:31:46.391Z,7.50
2023-04-19T03:34:15.218Z,7.57
2023-04-19T03:36:45.884Z,7.64
2023-04-19T03:39:21.979Z,7.73
2023-04-19T03:41:53.434Z,7.69
2023-04-19T03:44:36.059Z,7.74
2023-04-19T03:47:05.540Z,7.85
2023-04-19T03:49:39.423Z,7.94
2023-04-19T03:52:07.382Z,8.05
2023-04-19T03:54:35.053Z,8.09
2023-04-19T03:57:04.695Z,8.16
2023-04-19T03:59:33.366Z,8.26
2023-04-19T04:02:00.621Z,8.36
2023-04-19T04:04:28.020Z,8.43
2023-04-19T04:06:55.977Z,8.48
2023-04-19T04:09:23.218Z,8.59
2023-04-19T04:11:51.089Z,8.65
2023-04-19T04:14:18.212Z,8.75
2023-04-19T04:16:46.926Z,8.86
2023-04-19T04:19:16.407Z,8.94
2023-04-19T04:21:43.689Z,9.04
2023-04-19T04:24:11.953Z,9.11
2023-04-19T04:26:46.219Z,9.21
2023-04-19T04:29:22.968Z,9.28
2023-04-19T04:31:52.604Z,9.39
2023-04-19T04:34:24.733Z,9.46
2023-04-19T04:36:59.393Z,9.54
2023-04-19T04:39:26.824Z,9.61
2023-04-19T04:41:53.948Z,9.72
2023-04-19T04:44:20.985Z,9.80
2023-04-19T04:46:50.777Z,9.83
2023-04-19T04:49:24.953Z,9.92
2023-04-19T04:51:52.146Z,9.99
2023-04-19T04:54:23.531Z,9.95
2023-04-19T04:56:51.190Z,9.90
2023-04-19T04:59:21.148Z,10.01
2023-04-19T05:01:51.524Z,10.07
2023-04-19T05:04:19.829Z,10.12
2023-04-19T05:06:46.950Z,10.26
2023-04-19T05:09:19.821Z,10.45
2023-04-19T05:11:49.285Z,10.61
2023-04-19T05:14:16.554Z,10.72
2023-04-19T05:16:43.658Z,10.82
2023-04-19T05:19:11.701Z,10.91
2023-04-19T05:21:44.960Z,11.05
2023-04-19T05:24:13.738Z,11.10
2023-04-19T05:26:45.393Z,11.18
2023-04-19T05:29:12.612Z,11.32
2023-04-19T05:31:52.194Z,11.36
2023-04-19T05:34:27.043Z,11.35
2023-04-19T05:36:56.327Z,11.45
2023-04-19T05:39:23.420Z,11.55
2023-04-19T05:41:51.891Z,11.60
2023-04-19T05:44:19.080Z,11.68
2023-04-19T05:46:46.215Z,11.79
2023-04-19T05:49:17.848Z,11.99
2023-04-19T05:52:02.078Z,12.03
2023-04-19T05:54:50.941Z,12.10
2023-04-19T05:57:17.993Z,12.27
2023-04-19T05:59:45.036Z,12.39
2023-04-19T06:02:20.467Z,12.63
2023-04-19T06:04:48.016Z,12.70
2023-04-19T06:07:27.556Z,12.63
2023-04-19T06:09:59.869Z,12.64
2023-04-19T06:12:27.217Z,12.67
2023-04-19T06:14:54.625Z,12.68
2023-04-19T06:17:25.359Z,12.73
2023-04-19T06:19:53.603Z,12.86
2023-04-19T06:22:21.443Z,13.01
2023-04-19T06:24:49.968Z,13.15
2023-04-19T06:27:17.281Z,13.01
2023-04-19T06:29:44.416Z,13.14
2023-04-19T06:32:11.840Z,13.14
2023-04-19T06:34:40.329Z,13.01
2023-04-19T06:37:07.630Z,13.06
2023-04-19T06:39:34.889Z,13.20
2023-04-19T06:42:05.113Z,13.20
2023-04-19T06:44:33.262Z,13.36
2023-04-19T06:47:06.139Z,13.52
2023-04-19T06:49:35.697Z,13.56
2023-04-19T06:52:05.638Z,13.47
2023-04-19T06:54:32.596Z,13.48
2023-04-19T06:56:59.872Z,13.56
2023-04-19T06:59:28.413Z,13.58
2023-04-19T07:01:57.688Z,13.61
2023-04-19T07:04:27.014Z,13.55
2023-04-19T07:06:55.107Z,13.62
2023-04-19T07:09:22.485Z,13.65
2023-04-19T07:11:51.427Z,13.67
2023-04-19T07:14:19.469Z,13.73
2023-04-19T07:16:50.989Z,13.90
2023-04-19T07:19:22.931Z,14.05
2023-04-19T07:21:50.709Z,14.18
2023-04-19T07:24:17.991Z,13.99
2023-04-19T07:26:45.225Z,14.09
2023-04-19T07:29:15.522Z,14.28
2023-04-19T07:31:43.149Z,14.49
2023-04-19T07:34:13.008Z,14.57
2023-04-19T07:36:40.143Z,14.64
2023-04-19T07:39:07.153Z,14.76
2023-04-19T07:41:38.286Z,14.82
2023-04-19T07:44:05.646Z,15.02
2023-04-19T07:46:32.757Z,15.22
2023-04-19T07:49:00.000Z,15.39
2023-04-19T07:51:27.711Z,15.56
2023-04-19T07:53:54.886Z,15.68
2023-04-19T07:56:22.673Z,15.75
2023-04-19T07:59:04.444Z,15.82
2023-04-19T08:02:01.335Z,16.02
2023-04-19T08:04:30.591Z,15.99
2023-04-19T08:06:57.790Z,16.16
2023-04-19T08:09:24.847Z,16.27
2023-04-19T08:11:54.207Z,16.54
2023-04-19T08:14:34.929Z,16.76
2023-04-19T08:17:24.049Z,17.00
2023-04-19T08:19:53.259Z,17.33
2023-04-19T08:22:21.790Z,17.50
2023-04-19T08:24:52.328Z,17.64
2023-04-19T08:27:19.992Z,17.80
2023-04-19T08:29:47.090Z,17.93
2023-04-19T08:32:14.121Z,18.18
2023-04-19T08:34:44.308Z,18.36
2023-04-19T08:37:11.489Z,18.70
2023-04-19T08:39:39.112Z,18.83
2023-04-19T08:42:24.619Z,18.54
2023-04-19T08:45:26.017Z,18.95
2023-04-19T08:47:59.574Z,19.35
2023-04-19T08:50:35.824Z,19.01
2023-04-19T08:55:55.171Z,19.26
2023-04-19T08:58:45.883Z,19.43
2023-04-19T09:01:33.870Z,19.87
2023-04-19T09:04:21.029Z,19.96
2023-04-19T09:06:49.876Z,20.17
2023-04-19T09:11:52.704Z,20.70
2023-04-19T09:14:22.471Z,20.89
2023-04-19T09:16:53.697Z,20.80
2023-04-19T09:19:25.193Z,20.69
2023-04-19T09:21:56.557Z,20.88
2023-04-19T09:27:12.561Z,21.29
2023-04-19T09:29:56.081Z,21.81
2023-04-19T09:32:24.469Z,21.93
2023-04-19T09:35:01.492Z,21.97
2023-04-19T09:37:53.374Z,21.88
2023-04-19T09:40:25.171Z,21.49
2023-04-19T09:48:16.072Z,22.11
2023-04-19T09:51:04.679Z,22.50
2023-04-19T09:53:36.928Z,22.89
2023-04-19T09:56:14.231Z,23.40
2023-04-19T09:58:50.788Z,23.46
2023-04-19T10:01:20.376Z,23.84
2023-04-19T10:03:50.311Z,24.23
2023-04-19T10:08:51.506Z,23.79
2023-04-19T10:11:26.858Z,24.04
2023-04-19T10:13:56.662Z,24.61
2023-04-19T10:16:23.994Z,24.83
2023-04-19T10:18:52.518Z,24.33
2023-04-19T10:21:20.834Z,24.12
2023-04-19T10:23:48.872Z,23.48
2023-04-19T10:26:16.281Z,23.69
2023-04-19T10:28:43.351Z,24.08
2023-04-19T10:31:16.199Z,24.15
2023-04-19T10:33:45.497Z,24.52
2023-04-19T10:36:18.612Z,24.83
2023-04-19T10:38:48.244Z,24.25
2023-04-19T10:41:17.935Z,24.26
2023-04-19T10:43:47.047Z,24.79
2023-04-19T10:46:24.575Z,24.72
2023-04-19T10:48:58.484Z,25.08
2023-04-19T10:51:32.823Z,25.24
2023-04-19T10:54:04.411Z,25.13
2023-04-19T10:56:34.699Z,25.17
2023-04-19T10:59:08.187Z,25.08
2023-04-19T11:01:45.534Z,24.88
2023-04-19T11:04:16.974Z,24.67
2023-04-19T11:06:53.558Z,24.73
2023-04-19T11:09:25.264Z,24.71
2023-04-19T11:11:54.412Z,25.16
2023-04-19T11:14:24.484Z,24.68
2023-04-19T11:16:51.708Z,24.50
2023-04-19T11:19:21.877Z,24.75
2023-04-19T11:21:50.229Z,25.55
2023-04-19T11:24:19.159Z,26.38
2023-04-19T11:26:47.964Z,26.97
2023-04-19T11:29:15.771Z,26.91
2023-04-19T11:31:46.766Z,27.09
2023-04-19T11:34:17.102Z,27.05
2023-04-19T11:36:51.903Z,27.39
2023-04-19T11:39:21.897Z,27.35
2023-04-19T11:41:49.160Z,26.74
2023-04-19T11:44:22.736Z,26.93
2023-04-19T11:47:05.553Z,27.44
2023-04-19T11:49:34.477Z,27.43
2023-04-19T11:52:05.615Z,27.32
2023-04-19T11:54:33.864Z,27.49
2023-04-19T11:57:05.861Z,25.72
2023-04-19T11:59:35.402Z,24.72
2023-04-19T12:02:12.832Z,25.31
2023-04-19T12:04:41.077Z,26.38
2023-04-19T12:07:10.722Z,26.42
2023-04-19T12:09:39.562Z,25.86
2023-04-19T12:12:06.977Z,24.48
2023-04-19T12:14:35.605Z,24.27
2023-04-19T12:17:08.566Z,22.27
2023-04-19T12:19:46.195Z,21.48
2023-04-19T12:22:20.458Z,21.01
2023-04-19T12:24:51.600Z,20.68
2023-04-19T12:27:18.909Z,20.63
2023-04-19T12:29:46.334Z,21.71
2023-04-19T12:32:16.467Z,24.10
2023-04-19T12:34:44.026Z,25.25
2023-04-19T12:37:20.225Z,26.33
2023-04-19T12:39:47.565Z,26.53
2023-04-19T12:42:14.564Z,26.00
2023-04-19T12:44:41.522Z,24.02
2023-04-19T12:47:08.542Z,23.85
2023-04-19T12:49:35.715Z,23.19
2023-04-19T12:52:02.657Z,22.70
2023-04-19T12:54:31.948Z,21.74
2023-04-19T12:57:04.296Z,21.07
2023-04-19T12:59:31.268Z,20.91
2023-04-19T13:01:58.373Z,20.81
2023-04-19T13:04:26.201Z,20.62
2023-04-19T13:06:54.379Z,20.47
2023-04-19T13:09:29.727Z,21.69
2023-04-19T13:12:00.186Z,23.61
2023-04-19T13:14:27.740Z,24.06
2023-04-19T13:16:55.102Z,22.84
2023-04-19T13:19:25.214Z,22.78
2023-04-19T13:21:52.333Z,24.64
2023-04-19T13:24:19.527Z,25.32
2023-04-19T13:26:46.739Z,25.14
2023-04-19T13:29:13.892Z,24.04
2023-04-19T13:31:43.723Z,24.21
2023-04-19T13:34:11.301Z,25.44
2023-04-19T13:36:39.913Z,26.01
2023-04-19T13:39:08.476Z,26.35
2023-04-19T13:41:35.885Z,26.59
2023-04-19T13:44:02.848Z,27.42
2023-04-19T13:46:29.792Z,27.69
2023-04-19T13:48:56.914Z,27.85
2023-04-19T13:51:33.177Z,27.95
2023-04-19T13:54:08.850Z,28.05
2023-04-19T13:56:54.774Z,28.15
2023-04-19T13:59:40.328Z,27.52
2023-04-19T14:02:07.906Z,27.62
2023-04-19T14:04:37.754Z,27.25
2023-04-19T14:07:09.081Z,27.39
2023-04-19T14:09:38.784Z,26.94
2023-04-19T14:12:08.885Z,27.11
2023-04-19T14:15:00.056Z,27.78
2023-04-19T14:17:45.850Z,27.74
2023-04-19T14:20:51.100Z,27.53
2023-04-19T14:23:55.596Z,26.94
2023-04-19T14:26:28.454Z,26.96
2023-04-19T14:28:57.989Z,26.75
2023-04-19T14:31:28.376Z,27.01
2023-04-19T14:34:34.433Z,24.91
2023-04-19T14:37:01.788Z,22.79
2023-04-19T14:39:47.931Z,21.80
2023-04-19T14:42:16.157Z,21.30
2023-04-19T14:44:44.611Z,21.37
2023-04-19T14:47:12.103Z,22.15
2023-04-19T14:49:39.215Z,22.58
2023-04-19T14:52:24.861Z,23.05
2023-04-19T14:54:52.149Z,22.16
2023-04-19T14:57:22.138Z,23.13
2023-04-19T14:59:49.597Z,24.13
2023-04-19T15:02:17.137Z,23.92
2023-04-19T15:04:44.607Z,23.78
2023-04-19T15:07:11.838Z,23.77
2023-04-19T15:09:38.974Z,22.98
2023-04-19T15:12:06.700Z,22.10
2023-04-19T15:14:34.324Z,21.37
2023-04-19T15:17:01.651Z,21.29
2023-04-19T15:19:29.944Z,20.88
2023-04-19T15:22:33.978Z,19.96
2023-04-19T15:25:02.624Z,19.33
2023-04-19T15:27:32.986Z,18.85
2023-04-19T15:30:00.159Z,18.37
2023-04-19T15:32:29.114Z,18.13
2023-04-19T15:34:56.799Z,17.88
2023-04-19T15:37:24.043Z,17.63
2023-04-19T15:40:09.521Z,17.41
2023-04-19T15:42:39.054Z,17.28
2023-04-19T15:45:07.452Z,17.19
2023-04-19T15:47:53.556Z,17.00
2023-04-19T15:50:39.383Z,16.82
2023-04-19T15:53:09.799Z,16.72
2023-04-19T15:55:36.805Z,16.59
2023-04-19T15:58:04.616Z,16.55
2023-04-19T16:00:31.782Z,16.41
2023-04-19T16:02:59.109Z,16.22
2023-04-19T16:05:27.366Z,16.04
2023-04-19T16:08:08.532Z,15.87
2023-04-19T16:10:38.172Z,15.71
2023-04-19T16:13:05.975Z,15.58
2023-04-19T16:15:34.645Z,15.39
2023-04-19T16:18:20.953Z,15.33
2023-04-19T16:20:48.362Z,15.18
2023-04-19T16:23:35.561Z,15.02
2023-04-19T16:26:22.290Z,14.99
2023-04-19T16:29:10.277Z,14.86
2023-04-19T16:31:37.684Z,14.71
2023-04-19T16:34:04.928Z,14.65
2023-04-19T16:36:50.239Z,14.63
2023-04-19T16:39:19.863Z,14.50
2023-04-19T16:41:47.012Z,14.41
2023-04-19T16:44:14.222Z,14.25
2023-04-19T16:46:44.156Z,14.25
2023-04-19T16:49:29.898Z,14.18
2023-04-19T16:51:59.796Z,14.17
2023-04-19T16:54:27.107Z,14.11
2023-04-19T16:56:54.298Z,14.09
2023-04-19T16:59:24.499Z,14.05
2023-04-19T17:01:56.995Z,13.92
2023-04-19T17:04:26.176Z,13.76
2023-04-19T17:06:55.651Z,13.72
2023-04-19T17:09:22.716Z,13.70
2023-04-19T17:11:49.798Z,13.73
2023-04-19T17:14:17.093Z,13.67
2023-04-19T17:16:44.546Z,13.56
2023-04-19T17:19:11.613Z,13.58
2023-04-19T17:21:44.899Z,13.58
2023-04-19T17:24:34.853Z,13.56
2023-04-19T17:27:03.191Z,13.43
2023-04-19T17:29:30.241Z,13.39
2023-04-19T17:32:16.408Z,13.30
2023-04-19T17:34:45.398Z,13.23
2023-04-19T17:37:13.354Z,13.21
2023-04-19T17:39:43.058Z,13.21
2023-04-19T17:42:11.366Z,13.10
2023-04-19T17:44:59.050Z,12.99
2023-04-19T17:47:45.157Z,12.99
2023-04-19T17:50:13.639Z,12.95
2023-04-19T17:52:40.808Z,12.93
2023-04-19T17:55:11.730Z,12.80
2023-04-19T17:57:38.834Z,12.84
2023-04-19T18:00:12.321Z,12.77
2023-04-19T18:02:40.867Z,12.67
2023-04-19T18:05:32.046Z,12.72
2023-04-19T18:08:03.844Z,12.65
2023-04-19T18:10:31.146Z,12.62
2023-04-19T18:12:58.497Z,12.53
2023-04-19T18:15:25.932Z,12.52
2023-04-19T18:17:53.135Z,12.50
2023-04-19T18:20:21.266Z,12.46
2023-04-19T18:23:07.241Z,12.40
2023-04-19T18:25:38.346Z,12.38
2023-04-19T18:28:06.657Z,12.27
2023-04-19T18:30:37.886Z,12.13
2023-04-19T18:33:05.119Z,12.09
2023-04-19T18:35:50.894Z,12.07
2023-04-19T18:38:19.061Z,12.04
2023-04-19T18:41:04.718Z,11.99
2023-04-19T18:43:32.638Z,11.92
2023-04-19T18:46:01.483Z,11.85
2023-04-19T18:49:08.806Z,11.75
2023-04-19T18:51:37.783Z,11.62
2023-04-19T18:54:04.955Z,11.72
2023-04-19T18:57:10.093Z,11.75
2023-04-19T18:59:41.122Z,11.67
2023-04-19T19:02:08.899Z,11.58
2023-04-19T19:04:51.131Z,11.62
2023-04-19T19:07:34.977Z,11.48
2023-04-19T19:10:18.323Z,11.42
2023-04-19T19:12:48.240Z,11.39
2023-04-19T19:15:36.548Z,11.37
2023-04-19T19:18:22.344Z,11.23
2023-04-19T19:21:08.997Z,11.20
2023-04-19T19:23:42.136Z,11.12
2023-04-19T19:26:12.579Z,11.11
2023-04-19T19:28:40.276Z,11.04
2023-04-19T19:31:07.311Z,11.04
2023-04-19T19:33:34.331Z,11.06
2023-04-19T19:36:19.947Z,11.07
2023-04-19T19:38:49.902Z,11.01
2023-04-19T19:43:49.639Z,10.94
2023-04-19T19:46:16.799Z,10.99
2023-04-19T19:48:45.235Z,10.99
2023-04-19T19:51:42.286Z,10.95
2023-04-19T19:54:00.248Z,10.86
2023-04-19T19:56:30.077Z,10.79
2023-04-19T19:58:57.771Z,10.79
2023-04-19T20:01:24.921Z,10.72
2023-04-19T20:03:57.250Z,10.67
2023-04-19T20:08:57.503Z,10.46
2023-04-19T20:11:42.999Z,10.46
2023-04-19T20:14:10.027Z,10.44
2023-04-19T20:16:37.626Z,10.42
2023-04-19T20:19:42.325Z,10.29
2023-04-19T20:22:09.892Z,10.26
2023-04-19T20:24:55.554Z,10.19
2023-04-19T20:27:22.719Z,10.22
2023-04-19T20:29:51.723Z,10.23
2023-04-19T20:32:21.525Z,10.25
2023-04-19T20:34:48.548Z,10.26
2023-04-19T20:37:18.542Z,10.18
2023-04-19T20:39:45.878Z,10.19
2023-04-19T20:42:12.894Z,10.12
2023-04-19T20:44:39.932Z,10.02
2023-04-19T20:47:09.331Z,9.98
2023-04-19T20:49:36.529Z,10.05
2023-04-19T20:52:22.187Z,9.99
2023-04-19T20:54:54.061Z,9.93
2023-04-19T20:57:21.102Z,9.89
2023-04-19T20:59:49.156Z,9.80
2023-04-19T21:02:16.324Z,9.84
2023-04-19T21:04:43.414Z,9.82
2023-04-19T21:07:10.833Z,9.79
2023-04-19T21:09:56.628Z,9.79
2023-04-19T21:12:24.623Z,9.72
2023-04-19T21:14:52.837Z,9.66
2023-04-19T21:17:20.745Z,9.66
2023-04-19T21:19:47.941Z,9.66
2023-04-19T21:22:35.101Z,9.61
2023-04-19T21:25:02.967Z,9.50
2023-04-19T21:27:34.190Z,9.45
2023-04-19T21:30:01.245Z,9.40
2023-04-19T21:32:34.481Z,9.39
2023-04-19T21:35:02.132Z,9.32
2023-04-19T21:37:31.298Z,9.19
2023-04-19T21:39:58.590Z,9.20
2023-04-19T21:42:28.139Z,9.15
2023-04-19T21:44:55.269Z,9.04
2023-04-19T21:47:23.344Z,8.92
2023-04-19T21:49:51.575Z,8.85
2023-04-19T21:52:18.802Z,8.83
2023-04-19T21:54:46.051Z,8.80
2023-04-19T21:57:13.028Z,8.77
2023-04-19T21:59:40.832Z,8.71
2023-04-19T22:02:08.545Z,8.66
2023-04-19T22:04:36.758Z,8.60
2023-04-19T22:07:03.745Z,8.60
2023-04-19T22:09:31.127Z,8.61
2023-04-19T22:11:58.372Z,8.67
2023-04-19T22:14:25.735Z,8.73
2023-04-19T22:16:55.873Z,8.73
2023-04-19T22:19:26.088Z,8.65
2023-04-19T22:21:55.350Z,8.59
2023-04-19T22:24:22.680Z,8.62
2023-04-19T22:26:51.071Z,8.59
2023-04-19T22:29:18.435Z,8.55
2023-04-19T22:31:45.741Z,8.52
2023-04-19T22:34:12.767Z,8.48
2023-04-19T22:36:40.523Z,8.42
2023-04-19T22:39:07.878Z,8.38
2023-04-19T22:41:34.911Z,8.33
2023-04-19T22:44:03.190Z,8.27
2023-04-19T22:46:30.782Z,8.16
2023-04-19T22:48:58.052Z,8.11
2023-04-19T22:51:25.159Z,8.09
2023-04-19T22:53:52.228Z,8.03
2023-04-19T22:56:23.475Z,8.06
2023-04-19T22:58:50.529Z,8.02
2023-04-19T23:01:17.606Z,8.00
2023-04-19T23:03:46.545Z,7.97
2023-04-19T23:06:13.728Z,7.93
2023-04-19T23:08:41.507Z,7.92
2023-04-19T23:11:10.238Z,7.97
2023-04-19T23:13:41.543Z,7.96
2023-04-19T23:16:12.169Z,8.02
2023-04-19T23:18:40.342Z,8.04
2023-04-19T23:21:07.468Z,7.92
2023-04-19T23:23:34.425Z,7.81
2023-04-19T23:26:01.468Z,7.81
2023-04-19T23:28:33.259Z,7.79
2023-04-19T23:31:00.729Z,7.78
2023-04-19T23:33:27.814Z,7.74
2023-04-19T23:35:54.960Z,7.70
2023-04-19T23:38:22.304Z,7.63
2023-04-19T23:40:49.430Z,7.54
2023-04-19T23:43:16.445Z,7.56
2023-04-19T23:45:46.527Z,7.48
2023-04-19T23:48:17.542Z,7.47
2023-04-19T23:50:47.485Z,7.43
2023-04-19T23:53:15.279Z,7.33
2023-04-19T23:55:42.272Z,7.28
2023-04-19T23:58:15.488Z,7.28
